Time;durP1;ratioP1;P1;durP2;ratioP2;P2;SDS_P1;SDS_P2;PMS_P1;PMS_P2;Temp;Humidity;BMP_temperature;BMP_pressure;BME280_temperature;BME280_humidity;BME280_pressure;Samples;Min_cycle;Max_cycle;Signal;HPM_P1;HPM_P2
2023/07/23 02:02:06;;;;;;;5.32;3.78;;;;;;;;;;4395635;28;20075;-78
2023/07/23 02:04:33;;;;;;;5.45;3.58;;;;;;;;;;4254378;33;20076;-79
2023/07/23 02:06:59;;;;;;;8.23;3.53;;;;;;;;;;4252941;33;20050;-79
2023/07/23 02:09:25;;;;;;;5.20;3.75;;;;;;;;;;4254604;33;20459;-80
2023/07/23 02:11:51;;;;;;;5.82;3.67;;;;;;;;;;4253703;33;20445;-79
2023/07/23 02:14:17;;;;;;;11.93;3.70;;;;;;;;;;4254252;33;20089;-79
2023/07/23 02:16:43;;;;;;;5.22;4.05;;;;;;;;;;4254677;33;20034;-79
2023/07/23 02:19:11;;;;;;;4.55;3.70;;;;;;;;;;4251461;33;20050;-79
2023/07/23 02:21:38;;;;;;;7.10;3.95;;;;;;;;;;4254580;33;20771;-79
2023/07/23 02:24:07;;;;;;;7.32;4.18;;;;;;;;;;4252945;33;20051;-79
2023/07/23 02:26:35;;;;;;;7.37;4.15;;;;;;;;;;4253116;33;20043;-79
2023/07/23 02:29:01;;;;;;;4.15;3.53;;;;;;;;;;4254834;33;20053;-80
2023/07/23 02:31:27;;;;;;;4.57;3.83;;;;;;;;;;4252416;33;20112;-79
2023/07/23 02:33:53;;;;;;;7.75;4.10;;;;;;;;;;4254636;33;20357;-78
2023/07/23 02:36:19;;;;;;;7.05;4.32;;;;;;;;;;4252609;33;20046;-78
2023/07/23 02:38:46;;;;;;;9.27;4.65;;;;;;;;;;4253677;33;20084;-79
2023/07/23 02:41:12;;;;;;;7.53;3.58;;;;;;;;;;4253059;33;20080;-82
2023/07/23 02:43:38;;;;;;;6.35;4.35;;;;;;;;;;4235887;33;20888;-80
2023/07/23 02:46:04;;;;;;;7.43;4.22;;;;;;;;;;4237866;33;20047;-78
2023/07/23 02:48:30;;;;;;;4.87;4.18;;;;;;;;;;4237726;33;20084;-79
2023/07/23 02:50:57;;;;;;;6.15;3.40;;;;;;;;;;4236580;33;20510;-79
2023/07/23 02:53:23;;;;;;;5.60;3.78;;;;;;;;;;4235320;33;20064;-82
2023/07/23 02:55:49;;;;;;;4.97;3.97;;;;;;;;;;4236221;33;20429;-78
2023/07/23 02:58:15;;;;;;;11.43;4.10;;;;;;;;;;4236724;33;20237;-79
2023/07/23 03:00:43;;;;;;;4.65;4.07;;;;;;;;;;4237549;33;20119;-80
2023/07/23 03:03:10;;;;;;;6.20;4.12;;;;;;;;;;4236005;33;20556;-79
2023/07/23 03:05:36;;;;;;;6.35;3.97;;;;;;;;;;4235387;33;20081;-80
2023/07/23 03:08:03;;;;;;;9.20;4.32;;;;;;;;;;4234743;33;20055;-79
2023/07/23 03:10:29;;;;;;;6.03;3.95;;;;;;;;;;4237495;33;20382;-79
2023/07/23 03:12:56;;;;;;;11.00;4.97;;;;;;;;;;4235546;33;20050;-80
2023/07/23 03:15:22;;;;;;;13.65;4.30;;;;;;;;;;4250356;33;20199;-78
2023/07/23 03:17:55;;;;;;;4.72;3.85;;;;;;;;;;4233722;33;20042;-78
2023/07/23 03:20:21;;;;;;;5.07;3.70;;;;;;;;;;4237379;33;20047;-79
2023/07/23 03:22:47;;;;;;;6.12;4.35;;;;;;;;;;4235869;33;20065;-79
2023/07/23 03:25:13;;;;;;;7.03;5.12;;;;;;;;;;4236935;33;20050;-79
2023/07/23 03:27:40;;;;;;;8.13;4.55;;;;;;;;;;4235363;33;20475;-79
2023/07/23 03:30:12;;;;;;;;;;;;;;;;;;4234092;33;20042;-80
2023/07/23 03:32:39;;;;;;;6.03;4.55;;;;;;;;;;4235329;33;20094;-80
2023/07/23 03:35:05;;;;;;;6.10;4.30;;;;;;;;;;4236014;33;20046;-79
2023/07/23 03:37:32;;;;;;;8.73;4.28;;;;;;;;;;4236157;33;20060;-80
2023/07/23 03:39:57;;;;;;;5.93;4.07;;;;;;;;;;4236324;33;20107;-78
2023/07/23 03:42:24;;;;;;;7.43;4.87;;;;;;;;;;4234461;33;20054;-79
2023/07/23 03:44:50;;;;;;;6.95;3.72;;;;;;;;;;4234575;33;20068;-79
2023/07/23 03:47:18;;;;;;;5.90;4.43;;;;;;;;;;4221276;33;20085;-79
2023/07/23 03:49:45;;;;;;;5.60;3.87;;;;;;;;;;4234683;33;20039;-81
2023/07/23 03:52:11;;;;;;;5.20;3.40;;;;;;;;;;4235421;33;20058;-79
2023/07/23 03:54:44;;;;;;;9.50;3.92;;;;;;;;;;4234841;33;20507;-83
2023/07/23 03:57:11;;;;;;;11.00;4.00;;;;;;;;;;4235133;33;20062;-81
2023/07/23 03:59:37;;;;;;;9.77;4.15;;;;;;;;;;4236780;33;20045;-80
2023/07/23 04:02:04;;;;;;;4.97;3.40;;;;;;;;;;4235782;33;20058;-80
2023/07/23 04:04:31;;;;;;;8.43;4.85;;;;;;;;;;4235089;33;20404;-81
2023/07/23 04:06:57;;;;;;;6.50;3.72;;;;;;;;;;4235200;33;20094;-83
2023/07/23 04:09:23;;;;;;;4.07;3.67;;;;;;;;;;4235825;33;20086;-77
2023/07/23 04:11:50;;;;;;;7.78;4.80;;;;;;;;;;4238039;33;20091;-79
2023/07/23 04:14:17;;;;;;;7.57;3.30;;;;;;;;;;4238292;33;20078;-79
2023/07/23 04:16:44;;;;;;;8.15;4.30;;;;;;;;;;4238396;33;20042;-79
2023/07/23 04:19:10;;;;;;;9.52;3.67;;;;;;;;;;4236871;33;20079;-79
2023/07/23 04:21:36;;;;;;;11.57;4.80;;;;;;;;;;4238940;33;20051;-79
2023/07/23 04:24:02;;;;;;;3.30;2.95;;;;;;;;;;4239463;33;20064;-81
2023/07/23 04:26:29;;;;;;;8.77;3.90;;;;;;;;;;4241178;33;20064;-79
2023/07/23 04:28:55;;;;;;;4.72;3.53;;;;;;;;;;4237505;33;20052;-79
2023/07/23 04:31:21;;;;;;;8.35;3.15;;;;;;;;;;4235940;33;20051;-79
2023/07/23 04:33:48;;;;;;;3.70;3.00;;;;;;;;;;4238340;33;20698;-79
2023/07/23 04:36:20;;;;;;;5.68;2.65;;;;;;;;;;4224008;34;20055;-79
2023/07/23 04:38:47;;;;;;;4.70;3.90;;;;;;;;;;4224036;34;20073;-81
2023/07/23 04:41:13;;;;;;;10.85;3.75;;;;;;;;;;4210293;34;20047;-80
2023/07/23 04:43:40;;;;;;;3.58;3.03;;;;;;;;;;4207277;34;20408;-79
2023/07/23 04:46:06;;;;;;;5.53;3.22;;;;;;;;;;4207316;34;20820;-79
2023/07/23 04:48:33;;;;;;;6.12;3.33;;;;;;;;;;4208123;34;20114;-79
2023/07/23 04:51:01;;;;;;;2.87;2.62;;;;;;;;;;4208983;34;20034;-79
2023/07/23 04:53:27;;;;;;;6.30;3.45;;;;;;;;;;4205554;34;20485;-85
2023/07/23 04:55:54;;;;;;;4.32;2.65;;;;;;;;;;4207297;34;20055;-79
2023/07/23 04:58:21;;;;;;;4.95;3.25;;;;;;;;;;4207789;34;20046;-80
2023/07/23 05:00:49;;;;;;;4.72;3.08;;;;;;;;;;4225895;33;20084;-80
2023/07/23 05:03:15;;;;;;;4.40;3.08;;;;;;;;;;4238544;33;20475;-80
2023/07/23 05:05:43;;;;;;;16.75;2.95;;;;;;;;;;4235810;33;20460;-80
2023/07/23 05:08:09;;;;;;;10.30;3.58;;;;;;;;;;4237755;33;20060;-80
2023/07/23 05:10:36;;;;;;;5.18;2.97;;;;;;;;;;4238480;33;20064;-77
2023/07/23 05:13:03;;;;;;;6.43;3.10;;;;;;;;;;4239523;33;20095;-81
2023/07/23 05:15:29;;;;;;;3.90;3.15;;;;;;;;;;4239470;33;20055;-85
2023/07/23 05:17:55;;;;;;;4.65;2.90;;;;;;;;;;4239350;33;20054;-80
2023/07/23 05:20:21;;;;;;;8.45;3.30;;;;;;;;;;4240997;33;20066;-78
2023/07/23 05:22:47;;;;;;;3.58;2.62;;;;;;;;;;4239868;33;20491;-79
2023/07/23 05:25:13;;;;;;;6.82;3.00;;;;;;;;;;4241061;33;20491;-80
2023/07/23 05:27:39;;;;;;;5.22;2.78;;;;;;;;;;4239441;33;20042;-81
2023/07/23 05:30:06;;;;;;;2.70;2.50;;;;;;;;;;4237996;33;20080;-79
2023/07/23 05:32:32;;;;;;;5.40;3.08;;;;;;;;;;4240190;33;20072;-80
2023/07/23 05:34:58;;;;;;;10.48;3.08;;;;;;;;;;4241076;33;20059;-79
2023/07/23 05:37:24;;;;;;;7.50;3.08;;;;;;;;;;4240715;33;20076;-81
2023/07/23 05:39:54;;;;;;;3.17;2.70;;;;;;;;;;4239840;33;20089;-84
2023/07/23 05:42:20;;;;;;;3.95;2.90;;;;;;;;;;4240115;33;20072;-79
2023/07/23 05:44:47;;;;;;;7.32;3.20;;;;;;;;;;4240052;33;20059;-79
2023/07/23 05:47:13;;;;;;;3.55;2.85;;;;;;;;;;4241201;33;20042;-79
2023/07/23 05:49:39;;;;;;;2.72;2.53;;;;;;;;;;4240997;33;20050;-79
2023/07/23 05:52:05;;;;;;;5.30;2.87;;;;;;;;;;4235336;33;20081;-83
2023/07/23 05:54:32;;;;;;;3.30;3.00;;;;;;;;;;4237193;33;20315;-81
2023/07/23 05:56:58;;;;;;;6.30;3.05;;;;;;;;;;4238468;33;20056;-81
2023/07/23 05:59:24;;;;;;;3.42;2.92;;;;;;;;;;4238627;33;20061;-79
2023/07/23 06:01:51;;;;;;;4.43;3.05;;;;;;;;;;4246566;33;20092;-81
2023/07/23 06:04:17;;;;;;;9.85;2.55;;;;;;;;;;4251907;33;20098;-78
2023/07/23 06:06:43;;;;;;;4.75;3.55;;;;;;;;;;4252036;33;20114;-79
2023/07/23 06:09:10;;;;;;;9.07;3.65;;;;;;;;;;4251372;33;20637;-79
2023/07/23 06:11:36;;;;;;;2.92;2.42;;;;;;;;;;4251209;33;20038;-78
2023/07/23 06:14:02;;;;;;;4.03;3.10;;;;;;;;;;4251051;33;20089;-79
2023/07/23 06:16:31;;;;;;;3.85;2.53;;;;;;;;;;4252411;33;20403;-81
2023/07/23 06:18:58;;;;;;;3.45;3.00;;;;;;;;;;4250705;33;20148;-81
2023/07/23 06:21:24;;;;;;;7.72;3.05;;;;;;;;;;4252251;33;20034;-81
2023/07/23 06:23:51;;;;;;;2.55;2.37;;;;;;;;;;4254176;33;20372;-80
2023/07/23 06:26:17;;;;;;;5.97;3.08;;;;;;;;;;4253823;33;20097;-80
2023/07/23 06:28:43;;;;;;;4.10;2.55;;;;;;;;;;4253223;33;20189;-84
2023/07/23 06:31:09;;;;;;;4.72;2.40;;;;;;;;;;4253999;33;20122;-79
2023/07/23 06:33:36;;;;;;;4.53;2.60;;;;;;;;;;4257321;33;20068;-79
2023/07/23 06:36:02;;;;;;;4.25;2.65;;;;;;;;;;4259661;33;20038;-78
2023/07/23 06:38:28;;;;;;;4.43;2.20;;;;;;;;;;4258396;33;20103;-81
2023/07/23 06:40:55;;;;;;;5.47;2.42;;;;;;;;;;4254688;33;20054;-85
2023/07/23 06:43:22;;;;;;;10.70;2.53;;;;;;;;;;4255991;33;20365;-79
2023/07/23 06:45:49;;;;;;;5.47;2.55;;;;;;;;;;4254430;33;20127;-78
2023/07/23 06:48:15;;;;;;;2.25;2.03;;;;;;;;;;4254258;33;20084;-79
2023/07/23 06:50:44;;;;;;;3.00;2.42;;;;;;;;;;4255192;33;20064;-79
2023/07/23 06:53:11;;;;;;;9.32;2.85;;;;;;;;;;4253680;33;20035;-85
2023/07/23 06:55:57;;;;;;;3.50;3.17;;;;;;;;;;4253529;33;20107;-79
2023/07/23 06:58:23;;;;;;;5.70;2.67;;;;;;;;;;4254242;33;20759;-81
2023/07/23 07:00:50;;;;;;;2.60;2.40;;;;;;;;;;4254273;33;20072;-81
2023/07/23 07:03:15;;;;;;;2.85;2.50;;;;;;;;;;4252162;33;20486;-79
2023/07/23 07:05:42;;;;;;;6.90;3.28;;;;;;;;;;4253525;33;20474;-80
2023/07/23 07:08:08;;;;;;;6.40;2.72;;;;;;;;;;4252017;33;20460;-80
2023/07/23 07:10:34;;;;;;;2.60;2.40;;;;;;;;;;4252587;33;20054;-78
2023/07/23 07:13:00;;;;;;;13.70;2.92;;;;;;;;;;4252357;33;20264;-81
2023/07/23 07:15:26;;;;;;;3.28;2.62;;;;;;;;;;4250830;33;20101;-79
2023/07/23 07:17:52;;;;;;;3.58;2.25;;;;;;;;;;4249859;33;20414;-79
2023/07/23 07:20:19;;;;;;;3.95;3.50;;;;;;;;;;4250069;33;20069;-79
2023/07/23 07:22:45;;;;;;;4.10;2.58;;;;;;;;;;4251096;33;20076;-81
2023/07/23 07:25:11;;;;;;;4.47;2.53;;;;;;;;;;4248380;33;20067;-83
2023/07/23 07:27:37;;;;;;;5.03;2.80;;;;;;;;;;4249641;33;20440;-79
2023/07/23 07:30:04;;;;;;;5.37;3.28;;;;;;;;;;4235655;33;20456;-80
2023/07/23 07:32:29;;;;;;;4.90;2.72;;;;;;;;;;4235641;33;20035;-80
2023/07/23 07:34:56;;;;;;;7.75;2.55;;;;;;;;;;4236675;33;20353;-80
2023/07/23 07:37:22;;;;;;;2.97;2.65;;;;;;;;;;4235804;33;20050;-79
2023/07/23 07:39:48;;;;;;;7.75;2.65;;;;;;;;;;4235928;33;20034;-79
2023/07/23 07:42:14;;;;;;;6.80;2.72;;;;;;;;;;4236107;33;20077;-79
2023/07/23 07:44:41;;;;;;;7.78;3.97;;;;;;;;;;4237013;33;20054;-78
2023/07/23 07:47:07;;;;;;;5.60;3.28;;;;;;;;;;4236420;33;20054;-80
2023/07/23 07:49:33;;;;;;;3.10;2.85;;;;;;;;;;4233792;33;20076;-84
2023/07/23 07:51:59;;;;;;;3.97;3.28;;;;;;;;;;4236314;33;20039;-80
2023/07/23 07:54:26;;;;;;;12.52;2.67;;;;;;;;;;4222181;34;20046;-79
2023/07/23 07:56:52;;;;;;;6.25;2.83;;;;;;;;;;4222046;34;20043;-81
2023/07/23 07:59:18;;;;;;;3.30;2.80;;;;;;;;;;4222783;34;20051;-79
2023/07/23 08:01:45;;;;;;;6.82;3.05;;;;;;;;;;4221001;33;20047;-82
2023/07/23 08:04:11;;;;;;;5.12;3.47;;;;;;;;;;4220642;34;20039;-79
2023/07/23 08:06:38;;;;;;;7.25;3.67;;;;;;;;;;4206313;34;20044;-79
2023/07/23 08:09:04;;;;;;;3.60;3.30;;;;;;;;;;4194201;34;20463;-79
2023/07/23 08:11:30;;;;;;;10.90;4.53;;;;;;;;;;4194486;34;20073;-78
2023/07/23 08:13:57;;;;;;;7.45;3.28;;;;;;;;;;4193214;34;20065;-83
2023/07/23 08:16:23;;;;;;;3.60;2.75;;;;;;;;;;4194455;34;20039;-79
2023/07/23 08:18:49;;;;;;;3.28;2.97;;;;;;;;;;4195188;34;20065;-80
2023/07/23 08:21:15;;;;;;;3.62;2.47;;;;;;;;;;4207489;34;20031;-79
2023/07/23 08:23:42;;;;;;;3.50;2.97;;;;;;;;;;4207656;34;20054;-79
2023/07/23 08:26:08;;;;;;;5.15;2.87;;;;;;;;;;4216898;34;20119;-80
2023/07/23 08:28:38;;;;;;;3.55;2.70;;;;;;;;;;4222342;34;20059;-80
2023/07/23 08:31:04;;;;;;;4.20;2.70;;;;;;;;;;4222375;34;20758;-80
2023/07/23 08:33:31;;;;;;;9.18;2.60;;;;;;;;;;4207082;34;20096;-78
2023/07/23 08:35:58;;;;;;;11.43;2.50;;;;;;;;;;4209496;34;20070;-80
2023/07/23 08:38:24;;;;;;;3.22;2.42;;;;;;;;;;4208986;34;20047;-78
2023/07/23 08:41:00;;;;;;;2.80;2.37;;;;;;;;;;4210964;34;20466;-80
2023/07/23 08:43:35;;;;;;;5.28;2.40;;;;;;;;;;4210352;34;20069;-80
2023/07/23 08:46:20;;;;;;;3.37;2.90;;;;;;;;;;4210451;34;20038;-83
2023/07/23 08:48:49;;;;;;;2.55;2.33;;;;;;;;;;4210932;34;20051;-79
2023/07/23 08:51:26;;;;;;;4.00;2.80;;;;;;;;;;4209836;34;20050;-79
2023/07/23 08:53:58;;;;;;;4.28;2.85;;;;;;;;;;4207372;34;20062;-81
2023/07/23 08:56:24;;;;;;;3.87;2.45;;;;;;;;;;4223953;34;20039;-79
2023/07/23 08:58:50;;;;;;;4.07;3.40;;;;;;;;;;4223799;34;20197;-78
2023/07/23 09:01:16;;;;;;;2.75;2.30;;;;;;;;;;4230575;33;20074;-81
2023/07/23 09:03:43;;;;;;;3.78;2.80;;;;;;;;;;4237722;33;20069;-78
2023/07/23 09:06:12;;;;;;;3.17;2.58;;;;;;;;;;4236507;33;20428;-80
2023/07/23 09:08:38;;;;;;;4.00;3.45;;;;;;;;;;4223207;33;20157;-79
2023/07/23 09:11:06;;;;;;;8.70;3.05;;;;;;;;;;4210309;34;20047;-79
2023/07/23 09:13:33;;;;;;;5.10;2.65;;;;;;;;;;4212258;34;20491;-80
2023/07/23 09:15:59;;;;;;;7.43;2.60;;;;;;;;;;4224583;34;20076;-80
2023/07/23 09:18:26;;;;;;;5.20;2.87;;;;;;;;;;4222286;34;20081;-85
2023/07/23 09:20:52;;;;;;;2.60;2.40;;;;;;;;;;4223942;34;20043;-80
2023/07/23 09:23:18;;;;;;;5.97;2.40;;;;;;;;;;4224415;34;20050;-79
2023/07/23 09:25:44;;;;;;;4.05;2.28;;;;;;;;;;4224493;34;20038;-80
2023/07/23 09:28:21;;;;;;;2.67;2.17;;;;;;;;;;4234927;33;20051;-78
2023/07/23 09:30:47;;;;;;;7.87;2.85;;;;;;;;;;4238495;33;20367;-79
2023/07/23 09:33:13;;;;;;;2.80;2.35;;;;;;;;;;4237075;33;20120;-79
2023/07/23 09:35:41;;;;;;;7.87;2.50;;;;;;;;;;4238172;33;20391;-79
2023/07/23 09:38:10;;;;;;;4.82;2.45;;;;;;;;;;4236472;33;20472;-81
2023/07/23 09:40:37;;;;;;;7.70;2.10;;;;;;;;;;4236240;33;20023;-79
2023/07/23 09:43:03;;;;;;;3.58;2.65;;;;;;;;;;4237801;33;20313;-80
2023/07/23 09:45:30;;;;;;;5.85;2.90;;;;;;;;;;4236706;33;20064;-79
2023/07/23 09:48:00;;;;;;;5.97;2.40;;;;;;;;;;4238123;33;20088;-80
2023/07/23 09:50:26;;;;;;;2.47;2.35;;;;;;;;;;4238134;33;20076;-81
2023/07/23 09:52:53;;;;;;;2.53;2.33;;;;;;;;;;4234630;33;20050;-82
2023/07/23 09:55:22;;;;;;;3.95;2.42;;;;;;;;;;4238265;33;20521;-80
2023/07/23 09:57:49;;;;;;;6.30;2.97;;;;;;;;;;4240179;33;20357;-81
2023/07/23 10:00:15;;;;;;;2.42;1.85;;;;;;;;;;4240597;33;20072;-80
2023/07/23 10:02:43;;;;;;;5.87;2.75;;;;;;;;;;4252493;33;20057;-81
2023/07/23 10:05:13;;;;;;;2.12;1.92;;;;;;;;;;4237331;33;20072;-81
2023/07/23 10:07:39;;;;;;;13.52;2.65;;;;;;;;;;4236731;33;20119;-81
2023/07/23 10:10:06;;;;;;;3.70;2.75;;;;;;;;;;4238171;33;20203;-80
2023/07/23 10:12:39;;;;;;;7.35;2.35;;;;;;;;;;4235576;33;20461;-82
2023/07/23 10:15:06;;;;;;;2.92;2.05;;;;;;;;;;4235860;33;20043;-81
2023/07/23 10:17:36;;;;;;;2.55;2.35;;;;;;;;;;4236858;33;20065;-80
2023/07/23 10:20:04;;;;;;;2.53;2.33;;;;;;;;;;4237835;33;20031;-81
2023/07/23 10:22:32;;;;;;;10.18;2.20;;;;;;;;;;4236372;33;20054;-81
2023/07/23 10:24:58;;;;;;;2.08;1.98;;;;;;;;;;4235041;33;20069;-80
2023/07/23 10:27:24;;;;;;;5.70;2.90;;;;;;;;;;4237586;33;20448;-80
2023/07/23 10:30:09;;;;;;;4.57;2.78;;;;;;;;;;4236335;33;20046;-80
2023/07/23 10:32:35;;;;;;;4.03;2.97;;;;;;;;;;4235412;33;20042;-86
2023/07/23 10:35:02;;;;;;;7.00;2.75;;;;;;;;;;4236779;33;20071;-80
2023/07/23 10:37:28;;;;;;;2.65;2.45;;;;;;;;;;4223290;34;20077;-81
2023/07/23 10:39:59;;;;;;;4.40;2.28;;;;;;;;;;4222986;34;20063;-80
2023/07/23 10:42:25;;;;;;;;;;;;;;;;;;4222290;34;20441;-80
2023/07/23 10:45:11;;;;;;;2.67;2.47;;;;;;;;;;4221783;34;19973;-81
2023/07/23 10:47:37;;;;;;;3.78;2.40;;;;;;;;;;4204413;34;20094;-80
2023/07/23 10:50:10;;;;;;;3.28;2.65;;;;;;;;;;4208876;34;20047;-80
2023/07/23 10:52:36;;;;;;;3.42;2.47;;;;;;;;;;4207745;34;20195;-80
2023/07/23 10:55:03;;;;;;;3.20;2.40;;;;;;;;;;4209390;34;20133;-80
2023/07/23 10:57:30;;;;;;;2.47;2.20;;;;;;;;;;4221836;33;20448;-80
2023/07/23 10:59:56;;;;;;;5.35;1.95;;;;;;;;;;4234543;33;20023;-79
2023/07/23 11:02:26;;;;;;;3.80;2.60;;;;;;;;;;4370422;28;20051;-81
2023/07/23 11:04:55;;;;;;;3.83;2.60;;;;;;;;;;4225063;34;20309;-80
2023/07/23 11:07:25;;;;;;;7.70;2.90;;;;;;;;;;4224106;34;20040;-80
2023/07/23 11:09:53;;;;;;;2.70;2.17;;;;;;;;;;4224462;34;20059;-79
2023/07/23 11:12:22;;;;;;;5.65;2.33;;;;;;;;;;4223714;34;20055;-84
2023/07/23 11:14:48;;;;;;;3.80;2.47;;;;;;;;;;4232672;34;20320;-80
2023/07/23 11:17:14;;;;;;;4.93;2.83;;;;;;;;;;4237205;34;20103;-82
2023/07/23 11:19:44;;;;;;;2.92;2.60;;;;;;;;;;4237512;34;20057;-82
2023/07/23 11:22:12;;;;;;;8.65;2.10;;;;;;;;;;4237037;34;20099;-83
2023/07/23 11:24:40;;;;;;;3.45;2.87;;;;;;;;;;4233651;34;20192;-80
2023/07/23 11:27:06;;;;;;;9.82;2.85;;;;;;;;;;4229941;34;20319;-81
2023/07/23 11:29:32;;;;;;;2.92;2.62;;;;;;;;;;4225903;34;20027;-80
2023/07/23 11:32:00;;;;;;;7.82;1.92;;;;;;;;;;4223029;34;20059;-81
2023/07/23 11:34:27;;;;;;;4.37;2.58;;;;;;;;;;4222013;34;20372;-86
2023/07/23 11:36:54;;;;;;;6.93;2.60;;;;;;;;;;4222725;34;20035;-80
2023/07/23 11:39:24;;;;;;;3.47;2.37;;;;;;;;;;4225347;34;20096;-81
2023/07/23 11:41:51;;;;;;;2.10;2.00;;;;;;;;;;4224056;34;20063;-80
2023/07/23 11:44:17;;;;;;;4.85;2.58;;;;;;;;;;4225187;34;20185;-81
2023/07/23 11:46:44;;;;;;;2.20;2.10;;;;;;;;;;4223893;34;20404;-85
2023/07/23 11:49:11;;;;;;;2.75;2.50;;;;;;;;;;4223450;34;20070;-81
2023/07/23 11:51:37;;;;;;;16.87;3.53;;;;;;;;;;4224430;34;20055;-80
2023/07/23 11:54:10;;;;;;;3.25;2.95;;;;;;;;;;4223416;34;20039;-80
2023/07/23 11:56:38;;;;;;;7.25;2.42;;;;;;;;;;4224891;34;20476;-81
2023/07/23 11:59:05;;;;;;;6.10;2.50;;;;;;;;;;4223163;34;20076;-80
2023/07/23 12:01:31;;;;;;;2.53;2.33;;;;;;;;;;4223366;33;21013;-79
2023/07/23 12:03:59;;;;;;;2.72;2.37;;;;;;;;;;4224691;34;20216;-79
2023/07/23 12:06:27;;;;;;;2.45;2.28;;;;;;;;;;4224700;34;20059;-79
2023/07/23 12:08:53;;;;;;;2.55;2.35;;;;;;;;;;4220346;34;20031;-83
2023/07/23 12:11:22;;;;;;;3.05;2.30;;;;;;;;;;4220547;34;20061;-80
2023/07/23 12:13:51;;;;;;;13.18;2.45;;;;;;;;;;4221848;34;20054;-79
2023/07/23 12:16:35;;;;;;;4.32;2.47;;;;;;;;;;4207266;34;20540;-78
2023/07/23 12:19:05;;;;;;;8.00;2.40;;;;;;;;;;4208737;34;20044;-80
2023/07/23 12:21:33;;;;;;;5.70;2.97;;;;;;;;;;4209501;34;20077;-79
2023/07/23 12:24:10;;;;;;;6.00;2.35;;;;;;;;;;4208792;34;20069;-79
2023/07/23 12:26:36;;;;;;;9.25;3.00;;;;;;;;;;4208510;34;20062;-79
2023/07/23 12:29:03;;;;;;;4.32;3.25;;;;;;;;;;4207544;34;20077;-81
2023/07/23 12:31:29;;;;;;;6.12;2.90;;;;;;;;;;4207781;34;20063;-80
2023/07/23 12:33:55;;;;;;;5.37;2.85;;;;;;;;;;4208139;34;20043;-79
2023/07/23 12:36:22;;;;;;;4.32;3.17;;;;;;;;;;4208374;34;20039;-79
2023/07/23 12:38:48;;;;;;;2.83;2.60;;;;;;;;;;4207108;34;20074;-79
2023/07/23 12:41:14;;;;;;;9.13;2.70;;;;;;;;;;4220463;34;20117;-83
2023/07/23 12:43:40;;;;;;;9.68;2.50;;;;;;;;;;4221372;34;20043;-80
2023/07/23 12:46:06;;;;;;;6.15;2.17;;;;;;;;;;4221623;34;20367;-79
2023/07/23 12:48:33;;;;;;;2.83;2.62;;;;;;;;;;4224997;34;20084;-80
2023/07/23 12:50:59;;;;;;;6.55;2.55;;;;;;;;;;4224029;34;20047;-78
2023/07/23 12:53:25;;;;;;;9.80;2.60;;;;;;;;;;4222620;34;20057;-80
2023/07/23 12:55:51;;;;;;;4.80;2.08;;;;;;;;;;4223595;34;20077;-81
2023/07/23 12:58:17;;;;;;;11.45;2.42;;;;;;;;;;4249181;33;20137;-81
2023/07/23 13:00:50;;;;;;;4.75;3.67;;;;;;;;;;4244687;33;20077;-80
2023/07/23 13:03:16;;;;;;;10.43;2.22;;;;;;;;;;4234471;33;20080;-80
2023/07/23 13:05:43;;;;;;;2.72;2.40;;;;;;;;;;4232998;33;20432;-83
2023/07/23 13:08:08;;;;;;;3.10;2.45;;;;;;;;;;4235756;33;20337;-81
2023/07/23 13:10:35;;;;;;;3.08;2.55;;;;;;;;;;4235641;33;20053;-80
2023/07/23 13:13:01;;;;;;;6.37;2.30;;;;;;;;;;4235147;33;20043;-80
2023/07/23 13:15:27;;;;;;;5.70;2.60;;;;;;;;;;4234652;33;20090;-80
2023/07/23 13:17:53;;;;;;;10.55;2.40;;;;;;;;;;4233027;33;20038;-80
2023/07/23 13:20:20;;;;;;;3.33;2.03;;;;;;;;;;4207555;34;20409;-81
2023/07/23 13:22:45;;;;;;;2.40;1.90;;;;;;;;;;4210501;34;20138;-80
2023/07/23 13:25:12;;;;;;;2.40;2.20;;;;;;;;;;4210247;34;20047;-79
2023/07/23 13:27:38;;;;;;;2.95;2.33;;;;;;;;;;4209488;34;20139;-80
2023/07/23 13:30:10;;;;;;;2.55;2.00;;;;;;;;;;4197260;34;20056;-80
2023/07/23 13:32:36;;;;;;;3.15;2.95;;;;;;;;;;4196282;34;20052;-80
2023/07/23 13:35:04;;;;;;;12.05;2.92;;;;;;;;;;4195484;34;20496;-80
2023/07/23 13:37:30;;;;;;;3.12;2.37;;;;;;;;;;4195309;34;20135;-79
2023/07/23 13:39:56;;;;;;;2.70;2.17;;;;;;;;;;4195226;34;20187;-81
2023/07/23 13:42:22;;;;;;;2.45;2.22;;;;;;;;;;4194982;34;20087;-78
2023/07/23 13:44:48;;;;;;;13.18;2.70;;;;;;;;;;4196139;34;20871;-81
2023/07/23 13:47:15;;;;;;;4.37;2.33;;;;;;;;;;4195876;34;20069;-79
2023/07/23 13:49:41;;;;;;;2.72;2.28;;;;;;;;;;4209239;34;20073;-80
2023/07/23 13:52:07;;;;;;;10.00;2.53;;;;;;;;;;4209069;34;20083;-81
2023/07/23 13:54:34;;;;;;;3.12;2.83;;;;;;;;;;4209123;34;20436;-78
2023/07/23 13:57:00;;;;;;;2.80;2.60;;;;;;;;;;4214260;33;20054;-79
2023/07/23 13:59:32;;;;;;;4.93;2.50;;;;;;;;;;4237650;33;20457;-80
2023/07/23 14:02:00;;;;;;;4.40;2.30;;;;;;;;;;4237515;33;20400;-80
2023/07/23 14:04:26;;;;;;;12.90;2.62;;;;;;;;;;4235507;33;20051;-80
2023/07/23 14:06:52;;;;;;;3.35;2.12;;;;;;;;;;4237705;33;20038;-79
2023/07/23 14:09:20;;;;;;;4.97;2.53;;;;;;;;;;4236724;33;20043;-81
2023/07/23 14:11:46;;;;;;;3.08;2.35;;;;;;;;;;4238127;33;20503;-80
2023/07/23 14:14:13;;;;;;;7.70;3.62;;;;;;;;;;4236715;33;20055;-80
2023/07/23 14:16:39;;;;;;;3.25;2.30;;;;;;;;;;4221234;34;20042;-81
2023/07/23 14:19:05;;;;;;;3.35;2.30;;;;;;;;;;4208538;34;20059;-80
2023/07/23 14:21:31;;;;;;;24.80;2.72;;;;;;;;;;4197630;34;20043;-81
2023/07/23 14:23:57;;;;;;;7.20;2.10;;;;;;;;;;4207978;34;20437;-82
2023/07/23 14:26:24;;;;;;;2.85;2.47;;;;;;;;;;4208574;34;20047;-82
2023/07/23 14:28:50;;;;;;;3.30;2.80;;;;;;;;;;4207809;34;20063;-81
2023/07/23 14:31:16;;;;;;;4.97;2.47;;;;;;;;;;4208351;34;20468;-81
2023/07/23 14:33:43;;;;;;;5.68;2.15;;;;;;;;;;4208310;34;20100;-81
2023/07/23 14:36:09;;;;;;;7.78;2.45;;;;;;;;;;4209364;34;20096;-80
2023/07/23 14:38:36;;;;;;;6.93;2.55;;;;;;;;;;4206834;34;20434;-83
2023/07/23 14:41:02;;;;;;;4.75;2.55;;;;;;;;;;4209266;34;20071;-80
2023/07/23 14:43:30;;;;;;;6.47;2.47;;;;;;;;;;4209841;34;20502;-80
2023/07/23 14:45:56;;;;;;;4.70;3.03;;;;;;;;;;4208770;34;20056;-80
2023/07/23 14:48:23;;;;;;;3.75;2.75;;;;;;;;;;4208142;34;20058;-80
2023/07/23 14:50:49;;;;;;;3.17;2.40;;;;;;;;;;4228613;33;20395;-83
2023/07/23 14:53:15;;;;;;;3.30;2.35;;;;;;;;;;4236735;33;20491;-80
2023/07/23 14:55:41;;;;;;;3.17;2.58;;;;;;;;;;4217653;33;20047;-81
2023/07/23 14:58:11;;;;;;;9.63;3.00;;;;;;;;;;4211122;34;20095;-80
2023/07/23 15:00:37;;;;;;;2.30;2.08;;;;;;;;;;4210988;33;20082;-83
2023/07/23 15:03:04;;;;;;;2.62;2.42;;;;;;;;;;4208993;34;20073;-79
2023/07/23 15:05:30;;;;;;;3.33;2.35;;;;;;;;;;4211785;34;20392;-79
2023/07/23 15:07:56;;;;;;;2.70;2.50;;;;;;;;;;4210832;34;20409;-79
2023/07/23 15:10:22;;;;;;;5.75;2.50;;;;;;;;;;4211070;34;20040;-79
2023/07/23 15:12:49;;;;;;;5.72;2.55;;;;;;;;;;4210998;34;20162;-80
2023/07/23 15:15:15;;;;;;;3.37;3.10;;;;;;;;;;4209045;34;20578;-79
2023/07/23 15:17:41;;;;;;;3.60;3.28;;;;;;;;;;4210790;34;20074;-79
2023/07/23 15:20:08;;;;;;;2.58;2.20;;;;;;;;;;4221868;34;20100;-79
2023/07/23 15:22:34;;;;;;;9.98;2.70;;;;;;;;;;4222572;34;20047;-80
2023/07/23 15:25:00;;;;;;;7.62;2.55;;;;;;;;;;4221679;34;20051;-80
2023/07/23 15:27:28;;;;;;;8.60;2.28;;;;;;;;;;4220060;34;20377;-80
2023/07/23 15:29:54;;;;;;;3.87;2.40;;;;;;;;;;4221428;34;20805;-80
2023/07/23 15:32:21;;;;;;;5.78;2.50;;;;;;;;;;4221841;34;20073;-81
2023/07/23 15:34:47;;;;;;;2.85;2.65;;;;;;;;;;4222699;34;20120;-80
2023/07/23 15:37:14;;;;;;;2.92;2.53;;;;;;;;;;4221008;34;20058;-80
2023/07/23 15:39:40;;;;;;;3.70;2.00;;;;;;;;;;4220259;34;20907;-84
2023/07/23 15:42:06;;;;;;;2.67;2.47;;;;;;;;;;4220685;34;20212;-82
2023/07/23 15:44:32;;;;;;;8.45;2.58;;;;;;;;;;4222138;34;20047;-80
2023/07/23 15:46:59;;;;;;;7.70;2.45;;;;;;;;;;4221296;34;20047;-80
2023/07/23 15:49:25;;;;;;;4.22;2.83;;;;;;;;;;4222169;34;20060;-81
2023/07/23 15:51:51;;;;;;;3.22;2.85;;;;;;;;;;4220405;34;20051;-85
2023/07/23 15:54:18;;;;;;;2.85;2.58;;;;;;;;;;4221222;34;20086;-80
2023/07/23 15:56:45;;;;;;;3.42;2.15;;;;;;;;;;4222796;34;20440;-80
2023/07/23 15:59:11;;;;;;;13.57;2.60;;;;;;;;;;4221623;34;20030;-80
2023/07/23 16:01:37;;;;;;;4.35;2.28;;;;;;;;;;4221246;33;20112;-80
2023/07/23 16:04:04;;;;;;;7.65;2.35;;;;;;;;;;4233888;33;20441;-82
2023/07/23 16:06:30;;;;;;;3.40;2.60;;;;;;;;;;4219818;34;20161;-79
2023/07/23 16:08:56;;;;;;;4.25;2.62;;;;;;;;;;4221236;34;20295;-80
2023/07/23 16:11:22;;;;;;;2.53;2.25;;;;;;;;;;4222030;34;20064;-80
2023/07/23 16:13:49;;;;;;;6.25;2.80;;;;;;;;;;4221257;34;20387;-79
2023/07/23 16:16:15;;;;;;;4.60;2.78;;;;;;;;;;4206605;34;20108;-84
2023/07/23 16:18:41;;;;;;;18.20;3.53;;;;;;;;;;4205297;34;20047;-79
2023/07/23 16:21:07;;;;;;;3.50;2.70;;;;;;;;;;4207446;34;20776;-78
2023/07/23 16:23:33;;;;;;;4.72;2.83;;;;;;;;;;4207055;34;20059;-80
2023/07/23 16:25:59;;;;;;;3.78;2.60;;;;;;;;;;4207819;34;20047;-79
2023/07/23 16:28:26;;;;;;;6.05;2.92;;;;;;;;;;4207924;34;20144;-79
2023/07/23 16:30:53;;;;;;;2.58;2.28;;;;;;;;;;4204927;34;20048;-82
2023/07/23 16:33:20;;;;;;;3.05;2.53;;;;;;;;;;4208167;34;20297;-78
2023/07/23 16:35:46;;;;;;;2.85;2.65;;;;;;;;;;4206804;34;20056;-80
2023/07/23 16:38:14;;;;;;;3.65;2.80;;;;;;;;;;4217636;34;20386;-80
2023/07/23 16:40:42;;;;;;;2.95;2.20;;;;;;;;;;4220739;33;20074;-80
2023/07/23 16:43:10;;;;;;;3.58;2.62;;;;;;;;;;4218742;33;20085;-80